createdAt,value
2018-09-05T00:02:02.743Z,10.03
2018-09-05T00:04:32.127Z,10.20
2018-09-05T00:07:01.440Z,8.17
2018-09-05T00:09:30.865Z,12.10
2018-09-05T00:12:00.183Z,7.90
2018-09-05T00:14:29.546Z,8.23
2018-09-05T00:16:58.909Z,10.93
2018-09-05T00:19:28.291Z,9.43
2018-09-05T00:21:57.636Z,8.57
2018-09-05T00:24:27.011Z,11.43
2018-09-05T00:26:56.373Z,24.67
2018-09-05T00:29:25.882Z,27.20
2018-09-05T00:31:55.246Z,23.67
2018-09-05T00:34:24.739Z,17.90
2018-09-05T00:36:54.120Z,11.70
2018-09-05T00:39:23.488Z,8.33
2018-09-05T00:41:52.934Z,8.30
2018-09-05T00:44:22.303Z,9.97
2018-09-05T00:46:52.546Z,11.77
2018-09-05T00:49:21.914Z,14.37
2018-09-05T00:51:51.270Z,10.40
2018-09-05T00:54:20.570Z,10.97
2018-09-05T00:56:49.942Z,9.93
2018-09-05T00:59:19.287Z,9.53
2018-09-05T01:01:48.656Z,8.20
2018-09-05T01:04:18.034Z,8.30
2018-09-05T01:06:47.418Z,9.20
2018-09-05T01:09:16.819Z,7.60
2018-09-05T01:11:46.303Z,10.93
2018-09-05T01:14:15.635Z,8.77
2018-09-05T01:16:45.001Z,8.27
2018-09-05T01:19:14.314Z,8.87
2018-09-05T01:21:43.655Z,8.67
2018-09-05T01:24:12.989Z,9.10
2018-09-05T01:26:42.372Z,10.17
2018-09-05T01:29:11.759Z,9.03
2018-09-05T01:31:41.136Z,8.00
2018-09-05T01:34:10.431Z,10.53
2018-09-05T01:36:39.822Z,9.60
2018-09-05T01:39:09.259Z,9.00
2018-09-05T01:41:38.666Z,8.37
2018-09-05T01:44:08.074Z,10.47
2018-09-05T01:46:37.411Z,12.10
2018-09-05T01:49:07.099Z,8.27
2018-09-05T01:51:36.427Z,8.63
2018-09-05T01:54:05.799Z,8.93
2018-09-05T01:56:35.183Z,9.03
2018-09-05T01:59:04.610Z,9.83
2018-09-05T02:01:34.050Z,10.43
2018-09-05T02:04:03.413Z,9.87
2018-09-05T02:06:32.788Z,9.13
2018-09-05T02:09:02.125Z,9.30
2018-09-05T02:11:31.524Z,8.13
2018-09-05T02:14:00.912Z,8.50
2018-09-05T02:16:30.458Z,8.43
2018-09-05T02:18:59.855Z,8.73
2018-09-05T02:21:29.309Z,9.77
2018-09-05T02:23:59.270Z,8.47
2018-09-05T02:26:28.727Z,9.17
2018-09-05T02:28:58.058Z,9.10
2018-09-05T02:31:27.543Z,11.77
2018-09-05T02:33:56.883Z,8.60
2018-09-05T02:36:26.372Z,10.90
2018-09-05T02:38:55.848Z,8.90
2018-09-05T02:41:25.258Z,9.47
2018-09-05T02:43:59.663Z,9.43
2018-09-05T02:46:29.102Z,9.00
2018-09-05T02:48:58.467Z,9.27
2018-09-05T02:51:27.895Z,10.20
2018-09-05T02:53:57.270Z,8.10
2018-09-05T02:56:26.579Z,11.07
2018-09-05T02:58:55.968Z,8.53
2018-09-05T03:01:25.283Z,7.80
2018-09-05T03:03:54.637Z,11.67
2018-09-05T03:06:23.968Z,8.73
2018-09-05T03:08:53.331Z,7.93
2018-09-05T03:11:22.655Z,10.77
2018-09-05T03:13:52.024Z,8.40
2018-09-05T03:16:21.415Z,8.83
2018-09-05T03:18:50.791Z,9.20
2018-09-05T03:21:20.191Z,8.33
2018-09-05T03:23:49.603Z,9.77
2018-09-05T03:26:18.918Z,8.70
2018-09-05T03:28:48.268Z,9.23
2018-09-05T03:31:17.595Z,7.50
2018-09-05T03:33:46.956Z,8.20
2018-09-05T03:36:16.304Z,9.67
2018-09-05T03:38:45.688Z,11.63
2018-09-05T03:41:15.898Z,12.67
2018-09-05T03:43:45.256Z,7.83
2018-09-05T03:46:14.372Z,9.00
2018-09-05T03:48:43.517Z,7.80
2018-09-05T03:51:13.001Z,9.30
2018-09-05T03:53:42.153Z,11.47
2018-09-05T03:56:11.201Z,13.73
2018-09-05T03:58:40.265Z,9.53
2018-09-05T04:01:09.364Z,9.77
2018-09-05T04:03:38.437Z,7.93
2018-09-05T04:06:07.503Z,10.73
2018-09-05T04:08:36.593Z,9.83
2018-09-05T04:11:05.593Z,7.67
2018-09-05T04:13:34.714Z,10.50
2018-09-05T04:16:03.777Z,8.70
2018-09-05T04:18:33.628Z,9.67
2018-09-05T04:21:02.713Z,7.60
2018-09-05T04:23:37.913Z,9.07
2018-09-05T04:26:07.057Z,9.33
2018-09-05T04:28:36.466Z,7.77
2018-09-05T04:31:05.572Z,11.37
2018-09-05T04:33:34.689Z,8.90
2018-09-05T04:36:04.027Z,13.23
2018-09-05T04:38:33.386Z,9.03
2018-09-05T04:41:02.489Z,8.77
2018-09-05T04:43:31.537Z,9.63
2018-09-05T04:46:00.674Z,8.17
2018-09-05T04:48:29.733Z,13.33
2018-09-05T04:50:58.806Z,9.67
2018-09-05T04:53:27.859Z,8.80
2018-09-05T04:55:56.973Z,8.33
2018-09-05T04:58:26.082Z,9.40
2018-09-05T05:00:55.145Z,10.37
2018-09-05T05:03:24.333Z,8.77
2018-09-05T05:05:53.507Z,10.97
2018-09-05T05:08:22.535Z,8.03
2018-09-05T05:10:51.670Z,10.77
2018-09-05T05:13:20.954Z,10.30
2018-09-05T05:15:50.147Z,8.60
2018-09-05T05:18:20.262Z,11.37
2018-09-05T05:20:49.486Z,10.70
2018-09-05T05:23:18.701Z,10.73
2018-09-05T05:25:47.875Z,10.80
2018-09-05T05:28:17.094Z,10.53
2018-09-05T05:30:46.254Z,11.07
2018-09-05T05:33:15.448Z,13.03
2018-09-05T05:35:45.336Z,12.00
2018-09-05T05:38:14.619Z,12.77
2018-09-05T05:40:43.861Z,16.33
2018-09-05T05:43:13.045Z,15.67
2018-09-05T05:45:42.290Z,9.67
2018-09-05T05:48:11.524Z,10.70
2018-09-05T05:50:40.614Z,12.13
2018-09-05T05:53:09.721Z,10.60
2018-09-05T05:55:38.879Z,11.13
2018-09-05T05:58:07.989Z,10.80
2018-09-05T06:00:37.104Z,11.37
2018-09-05T06:03:06.190Z,9.60
2018-09-05T06:05:35.260Z,12.47
2018-09-05T06:08:04.369Z,8.17
2018-09-05T06:10:33.401Z,10.47
2018-09-05T06:13:02.506Z,14.03
2018-09-05T06:15:31.638Z,14.40
2018-09-05T06:18:00.712Z,13.30
2018-09-05T06:20:29.765Z,14.10
2018-09-05T06:22:58.818Z,14.17
2018-09-05T06:25:28.422Z,12.23
2018-09-05T06:27:57.620Z,13.10
2018-09-05T06:30:27.846Z,23.07
2018-09-05T06:32:56.953Z,18.43
2018-09-05T06:35:26.065Z,16.63
2018-09-05T06:37:55.090Z,14.80
2018-09-05T06:40:24.225Z,14.93
2018-09-05T06:42:53.276Z,11.37
2018-09-05T06:45:22.427Z,16.70
2018-09-05T06:47:51.470Z,14.20
2018-09-05T06:50:20.557Z,12.40
2018-09-05T06:52:49.645Z,11.70
2018-09-05T06:55:18.693Z,12.87
2018-09-05T06:57:47.810Z,12.57
2018-09-05T07:00:18.243Z,15.20
2018-09-05T07:02:47.450Z,12.17
2018-09-05T07:05:16.949Z,12.97
2018-09-05T07:07:46.122Z,13.27
2018-09-05T07:10:15.173Z,15.63
2018-09-05T07:12:44.289Z,11.77
2018-09-05T07:15:13.405Z,12.37
2018-09-05T07:17:44.355Z,12.53
2018-09-05T07:20:13.422Z,15.43
2018-09-05T07:22:44.370Z,14.03
2018-09-05T07:25:13.453Z,14.40
2018-09-05T07:27:42.601Z,13.37
2018-09-05T07:30:12.731Z,14.27
2018-09-05T07:32:41.808Z,14.70
2018-09-05T07:35:10.901Z,14.03
2018-09-05T07:37:39.977Z,18.87
2018-09-05T07:40:09.034Z,13.93
2018-09-05T07:42:38.105Z,10.70
2018-09-05T07:45:07.229Z,10.33
2018-09-05T07:47:36.301Z,13.47
2018-09-05T07:50:05.489Z,11.00
2018-09-05T07:52:34.551Z,11.27
2018-09-05T07:55:03.645Z,12.07
2018-09-05T07:57:32.726Z,12.17
2018-09-05T08:00:01.803Z,11.80
2018-09-05T08:02:30.914Z,11.77
2018-09-05T08:05:00.088Z,12.10
2018-09-05T08:07:29.205Z,13.67
2018-09-05T08:09:58.316Z,10.93
2018-09-05T08:12:27.365Z,11.13
2018-09-05T08:14:56.466Z,11.67
2018-09-05T08:17:25.557Z,13.20
2018-09-05T08:19:54.945Z,11.93
2018-09-05T08:22:24.061Z,11.40
2018-09-05T08:24:53.269Z,11.57
2018-09-05T08:27:23.545Z,11.00
2018-09-05T08:29:53.645Z,11.40
2018-09-05T08:32:22.793Z,10.97
2018-09-05T08:34:51.996Z,11.73
2018-09-05T08:37:21.967Z,11.93
2018-09-05T08:39:50.966Z,11.73
2018-09-05T08:42:21.084Z,11.23
2018-09-05T08:44:50.349Z,12.47
2018-09-05T08:47:19.930Z,11.67
2018-09-05T08:49:48.956Z,11.90
2018-09-05T08:52:18.070Z,12.20
2018-09-05T08:54:47.144Z,12.10
2018-09-05T08:57:16.230Z,11.93
2018-09-05T08:59:45.286Z,11.53
2018-09-05T09:02:15.389Z,11.43
2018-09-05T09:04:44.564Z,11.50
2018-09-05T09:07:13.682Z,10.67
2018-09-05T09:09:42.749Z,11.90
2018-09-05T09:12:11.802Z,11.43
2018-09-05T09:14:40.897Z,11.93
2018-09-05T09:17:09.941Z,11.30
2018-09-05T09:19:39.002Z,11.27
2018-09-05T09:22:08.037Z,11.45
2018-09-05T09:24:37.293Z,11.05
2018-09-05T09:27:07.037Z,11.43
2018-09-05T09:29:36.115Z,11.35
2018-09-05T09:32:05.237Z,9.90
2018-09-05T09:34:34.305Z,10.40
2018-09-05T09:37:03.408Z,11.15
2018-09-05T09:39:32.498Z,10.35
2018-09-05T09:42:01.559Z,10.63
2018-09-05T09:44:30.694Z,10.45
2018-09-05T09:46:59.771Z,10.58
2018-09-05T09:49:28.825Z,11.08
2018-09-05T09:52:02.950Z,10.35
2018-09-05T09:54:32.015Z,10.40
2018-09-05T09:57:02.069Z,10.93
2018-09-05T09:59:31.152Z,10.43
2018-09-05T10:02:05.281Z,10.08
2018-09-05T10:04:39.452Z,9.70
2018-09-05T10:07:13.727Z,11.57
2018-09-05T10:09:47.876Z,10.82
2018-09-05T10:12:22.014Z,9.80
2018-09-05T10:14:55.184Z,9.83
2018-09-05T10:17:29.336Z,10.80
2018-09-05T10:19:59.198Z,9.70
2018-09-05T10:22:28.709Z,9.40
2018-09-05T10:24:58.060Z,9.88
2018-09-05T10:27:27.846Z,9.63
2018-09-05T10:29:57.345Z,9.80
2018-09-05T10:32:26.697Z,10.53
2018-09-05T10:34:56.698Z,10.55
2018-09-05T10:37:26.026Z,10.32
2018-09-05T10:39:55.118Z,9.98
2018-09-05T10:42:24.158Z,10.25
2018-09-05T10:44:54.173Z,9.98
2018-09-05T10:47:23.242Z,9.95
2018-09-05T10:49:53.141Z,11.12
2018-09-05T10:52:22.233Z,10.43
2018-09-05T10:54:51.307Z,11.20
2018-09-05T10:57:20.345Z,9.85
2018-09-05T10:59:50.359Z,9.83
2018-09-05T11:02:20.421Z,9.65
2018-09-05T11:04:49.516Z,10.55
2018-09-05T11:07:18.586Z,9.20
2018-09-05T11:09:47.630Z,9.23
2018-09-05T11:12:16.736Z,9.30
2018-09-05T11:14:46.773Z,9.30
2018-09-05T11:17:15.854Z,11.88
2018-09-05T11:19:44.912Z,9.00
2018-09-05T11:22:13.918Z,9.83
2018-09-05T11:24:43.047Z,9.33
2018-09-05T11:27:12.163Z,9.70
2018-09-05T11:29:41.192Z,9.00
2018-09-05T11:32:10.641Z,9.93
2018-09-05T11:34:39.992Z,10.03
2018-09-05T11:37:09.073Z,9.93
2018-09-05T11:39:38.113Z,9.08
2018-09-05T11:42:07.193Z,8.73
2018-09-05T11:44:36.240Z,8.65
2018-09-05T11:47:05.303Z,9.45
2018-09-05T11:49:34.367Z,9.45
2018-09-05T11:52:03.425Z,9.30
2018-09-05T11:54:32.502Z,9.18
2018-09-05T11:57:01.634Z,9.75
2018-09-05T11:59:30.752Z,9.73
2018-09-05T12:01:59.922Z,9.15
2018-09-05T12:04:28.991Z,9.40
2018-09-05T12:06:58.183Z,9.25
2018-09-05T12:09:27.257Z,8.73
2018-09-05T12:11:56.326Z,9.15
2018-09-05T12:14:25.553Z,8.85
2018-09-05T12:16:54.697Z,9.63
2018-09-05T12:19:23.817Z,10.23
2018-09-05T12:21:52.882Z,9.50
2018-09-05T12:24:21.925Z,10.85
2018-09-05T12:26:51.040Z,10.15
2018-09-05T12:29:20.192Z,9.40
2018-09-05T12:31:49.825Z,8.95
2018-09-05T12:34:19.054Z,8.98
2018-09-05T12:36:48.152Z,15.58
2018-09-05T12:39:17.250Z,9.60
2018-09-05T12:41:46.365Z,9.80
2018-09-05T12:44:15.416Z,9.88
2018-09-05T12:46:44.481Z,9.05
2018-09-05T12:49:13.537Z,9.28
2018-09-05T12:51:42.652Z,11.60
2018-09-05T12:54:11.795Z,9.15
2018-09-05T12:56:40.889Z,9.30
2018-09-05T12:59:09.989Z,11.35
2018-09-05T13:01:39.078Z,10.88
2018-09-05T13:04:08.293Z,10.20
2018-09-05T13:06:37.912Z,8.58
2018-09-05T13:09:12.611Z,8.70
2018-09-05T13:11:41.659Z,9.43
2018-09-05T13:14:10.754Z,8.83
2018-09-05T13:16:39.950Z,9.05
2018-09-05T13:19:09.098Z,9.55
2018-09-05T13:21:38.477Z,9.25
2018-09-05T13:24:07.614Z,12.65
2018-09-05T13:26:36.765Z,9.60
2018-09-05T13:29:05.787Z,8.93
2018-09-05T13:31:34.913Z,11.08
2018-09-05T13:34:04.989Z,9.78
2018-09-05T13:36:34.118Z,9.70
2018-09-05T13:39:03.333Z,9.80
2018-09-05T13:41:32.467Z,8.68
2018-09-05T13:44:01.560Z,9.80
2018-09-05T13:46:30.602Z,9.55
2018-09-05T13:48:59.685Z,10.08
2018-09-05T13:51:30.722Z,10.00
2018-09-05T13:54:00.746Z,8.38
2018-09-05T13:56:29.834Z,8.98
2018-09-05T13:58:58.969Z,9.38
2018-09-05T14:01:28.037Z,9.13
2018-09-05T14:03:57.117Z,9.53
2018-09-05T14:06:27.078Z,8.98
2018-09-05T14:08:56.151Z,9.75
2018-09-05T14:11:25.273Z,9.80
2018-09-05T14:13:54.302Z,9.85
2018-09-05T14:16:23.414Z,9.28
2018-09-05T14:18:52.454Z,9.20
2018-09-05T14:21:21.551Z,9.90
2018-09-05T14:23:50.901Z,9.33
2018-09-05T14:26:19.967Z,8.43
2018-09-05T14:28:49.087Z,10.32
2018-09-05T14:31:18.592Z,9.68
2018-09-05T14:33:47.793Z,9.55
2018-09-05T14:36:16.889Z,9.43
2018-09-05T14:38:46.086Z,9.65
2018-09-05T14:41:15.266Z,9.70
2018-09-05T14:43:45.237Z,9.95
2018-09-05T14:46:14.422Z,9.93
2018-09-05T14:48:43.573Z,9.38
2018-09-05T14:51:12.629Z,9.13
2018-09-05T14:53:41.785Z,9.28
2018-09-05T14:56:10.890Z,9.03
2018-09-05T14:58:39.994Z,9.53
2018-09-05T15:01:09.163Z,9.03
2018-09-05T15:03:38.249Z,9.80
2018-09-05T15:06:07.398Z,9.43
2018-09-05T15:08:36.500Z,9.05
2018-09-05T15:11:05.586Z,9.10
2018-09-05T15:13:34.703Z,9.40
2018-09-05T15:16:03.878Z,10.75
2018-09-05T15:18:32.985Z,11.00
2018-09-05T15:21:02.501Z,9.30
2018-09-05T15:23:31.658Z,8.90
2018-09-05T15:26:00.867Z,9.33
2018-09-05T15:28:30.252Z,8.83
2018-09-05T15:30:59.387Z,8.65
2018-09-05T15:33:28.453Z,8.90
2018-09-05T15:35:57.552Z,9.45
2018-09-05T15:38:26.722Z,9.10
2018-09-05T15:40:55.844Z,8.83
2018-09-05T15:43:25.327Z,10.18
2018-09-05T15:45:54.492Z,8.70
2018-09-05T15:48:23.529Z,11.20
2018-09-05T15:50:52.605Z,9.15
2018-09-05T15:53:21.667Z,9.20
2018-09-05T15:55:50.854Z,9.70
2018-09-05T15:58:19.929Z,9.33
2018-09-05T16:00:49.091Z,9.25
2018-09-05T16:03:18.256Z,9.85
2018-09-05T16:05:47.329Z,10.88
2018-09-05T16:08:16.462Z,9.10
2018-09-05T16:10:45.936Z,10.40
2018-09-05T16:13:15.058Z,10.00
2018-09-05T16:15:44.300Z,9.83
2018-09-05T16:18:13.342Z,10.10
2018-09-05T16:20:42.443Z,9.60
2018-09-05T16:23:11.532Z,10.23
2018-09-05T16:25:40.645Z,10.00
2018-09-05T16:28:09.729Z,9.50
2018-09-05T16:30:38.898Z,10.40
2018-09-05T16:33:07.996Z,11.45
2018-09-05T16:35:37.177Z,11.35
2018-09-05T16:38:06.327Z,10.30
2018-09-05T16:40:35.407Z,9.75
2018-09-05T16:43:04.690Z,10.08
2018-09-05T16:45:33.793Z,11.57
2018-09-05T16:48:02.887Z,14.85
2018-09-05T16:50:31.890Z,10.58
2018-09-05T16:53:00.928Z,10.88
2018-09-05T16:55:29.937Z,10.32
2018-09-05T16:57:59.801Z,10.45
2018-09-05T17:00:28.884Z,11.85
2018-09-05T17:02:57.971Z,10.53
2018-09-05T17:05:27.049Z,9.85
2018-09-05T17:07:56.065Z,10.08
2018-09-05T17:10:25.142Z,11.03
2018-09-05T17:12:54.173Z,11.63
2018-09-05T17:15:23.249Z,10.40
2018-09-05T17:17:52.321Z,10.48
2018-09-05T17:20:21.426Z,10.93
2018-09-05T17:22:50.532Z,10.55
2018-09-05T17:25:19.605Z,15.38
2018-09-05T17:27:48.690Z,26.95
2018-09-05T17:30:17.804Z,17.75
2018-09-05T17:32:46.844Z,18.70
2018-09-05T17:35:15.930Z,34.58
2018-09-05T17:37:45.017Z,22.77
2018-09-05T17:40:14.068Z,17.62
2018-09-05T17:42:43.177Z,26.12
2018-09-05T17:45:12.275Z,37.28
2018-09-05T17:47:41.662Z,27.22
2018-09-05T17:50:10.761Z,20.08
2018-09-05T17:52:40.205Z,23.22
2018-09-05T17:55:09.323Z,19.02
2018-09-05T17:57:38.448Z,26.80
2018-09-05T18:00:07.697Z,40.53
2018-09-05T18:02:36.803Z,15.20
2018-09-05T18:05:05.990Z,52.50
2018-09-05T18:07:35.028Z,41.43
2018-09-05T18:10:04.198Z,35.33
2018-09-05T18:12:33.277Z,32.63
2018-09-05T18:15:02.326Z,57.40
2018-09-05T18:17:31.409Z,19.80
2018-09-05T18:20:00.510Z,36.77
2018-09-05T18:22:29.677Z,22.97
2018-09-05T18:24:59.883Z,34.57
2018-09-05T18:27:28.973Z,37.13
2018-09-05T18:29:58.130Z,39.70
2018-09-05T18:32:27.198Z,28.80
2018-09-05T18:34:56.914Z,36.73
2018-09-05T18:37:26.024Z,26.43
2018-09-05T18:39:55.106Z,41.07
2018-09-05T18:42:24.173Z,48.23
2018-09-05T18:44:53.204Z,44.83
2018-09-05T18:47:22.250Z,22.03
2018-09-05T18:49:51.369Z,29.70
2018-09-05T18:52:20.462Z,36.57
2018-09-05T18:54:49.602Z,40.30
2018-09-05T18:57:18.695Z,39.83
2018-09-05T18:59:47.783Z,37.93
2018-09-05T19:02:17.086Z,33.17
2018-09-05T19:04:46.472Z,24.53
2018-09-05T19:07:15.518Z,23.33
2018-09-05T19:09:44.611Z,20.57
2018-09-05T19:12:13.735Z,20.40
2018-09-05T19:14:42.823Z,18.17
2018-09-05T19:17:11.949Z,32.80
2018-09-05T19:19:40.956Z,39.60
2018-09-05T19:22:10.094Z,46.03
2018-09-05T19:24:39.564Z,36.63
2018-09-05T19:27:08.653Z,18.60
2018-09-05T19:29:37.750Z,17.83
2018-09-05T19:32:06.845Z,15.90
2018-09-05T19:34:36.039Z,17.30
2018-09-05T19:37:05.157Z,16.40
2018-09-05T19:39:34.563Z,15.23
2018-09-05T19:42:03.865Z,15.63
2018-09-05T19:44:33.031Z,18.60
2018-09-05T19:47:02.345Z,14.13
2018-09-05T19:49:31.583Z,15.43
2018-09-05T19:52:01.177Z,14.17
2018-09-05T19:54:30.637Z,14.17
2018-09-05T19:57:00.223Z,17.23
2018-09-05T19:59:29.636Z,13.37
2018-09-05T20:01:59.150Z,14.17
2018-09-05T20:04:29.236Z,15.07
2018-09-05T20:06:58.973Z,17.27
2018-09-05T20:09:28.130Z,14.53
2018-09-05T20:11:57.389Z,17.60
2018-09-05T20:14:26.610Z,18.50
2018-09-05T20:16:55.886Z,14.63
2018-09-05T20:19:24.924Z,14.70
2018-09-05T20:21:54.154Z,15.27
2018-09-05T20:24:23.428Z,15.10
2018-09-05T20:26:54.321Z,15.17
2018-09-05T20:29:23.450Z,13.43
2018-09-05T20:31:53.200Z,13.60
2018-09-05T20:34:22.382Z,14.53
2018-09-05T20:36:51.577Z,14.30
2018-09-05T20:39:20.757Z,15.07
2018-09-05T20:41:51.772Z,13.77
2018-09-05T20:44:20.903Z,14.10
2018-09-05T20:46:49.985Z,13.73
2018-09-05T20:49:19.494Z,18.97
2018-09-05T20:51:48.803Z,13.47
2018-09-05T20:54:18.162Z,13.70
2018-09-05T20:56:47.422Z,13.27
2018-09-05T20:59:16.532Z,16.17
2018-09-05T21:01:45.909Z,14.03
2018-09-05T21:04:15.579Z,14.20
2018-09-05T21:06:44.973Z,13.77
2018-09-05T21:09:15.628Z,13.97
2018-09-05T21:11:45.025Z,15.13
2018-09-05T21:14:20.226Z,14.53
2018-09-05T21:16:49.434Z,14.30
2018-09-05T21:19:18.534Z,15.03
2018-09-05T21:21:47.877Z,17.23
2018-09-05T21:24:17.061Z,13.47
2018-09-05T21:26:47.546Z,14.03
2018-09-05T21:29:16.739Z,14.03
2018-09-05T21:31:45.829Z,13.27
2018-09-05T21:34:15.050Z,13.97
2018-09-05T21:36:44.200Z,13.57
2018-09-05T21:39:14.145Z,13.73
2018-09-05T21:41:43.232Z,14.60
2018-09-05T21:44:13.246Z,15.53
2018-09-05T21:46:42.442Z,14.47
2018-09-05T21:49:11.505Z,14.17
2018-09-05T21:51:40.585Z,14.57
2018-09-05T21:54:09.723Z,14.07
2018-09-05T21:56:38.783Z,14.13
2018-09-05T21:59:07.897Z,15.87
2018-09-05T22:01:38.777Z,14.00
2018-09-05T22:04:07.881Z,13.20
2018-09-05T22:06:36.941Z,15.37
2018-09-05T22:09:08.721Z,16.60
2018-09-05T22:11:38.634Z,15.23
2018-09-05T22:14:07.693Z,14.30
2018-09-05T22:16:36.829Z,14.77
2018-09-05T22:19:05.873Z,14.50
2018-09-05T22:21:34.974Z,14.87
2018-09-05T22:24:04.068Z,15.07
2018-09-05T22:26:33.119Z,14.17
2018-09-05T22:29:02.277Z,14.50
2018-09-05T22:31:31.317Z,14.53
2018-09-05T22:34:00.361Z,15.53
2018-09-05T22:36:29.522Z,15.87
2018-09-05T22:38:58.701Z,16.10
2018-09-05T22:41:27.742Z,14.53
2018-09-05T22:44:07.952Z,15.20
2018-09-05T22:46:48.367Z,15.30
2018-09-05T22:50:07.703Z,15.03
2018-09-05T22:55:31.445Z,14.20
2018-09-05T22:58:22.384Z,13.97
2018-09-05T23:01:02.446Z,15.07
2018-09-05T23:03:40.967Z,15.90
2018-09-05T23:07:18.799Z,14.23
2018-09-05T23:09:58.833Z,14.13
2018-09-05T23:12:38.871Z,13.57
2018-09-05T23:15:18.897Z,13.90
2018-09-05T23:20:02.622Z,15.10
2018-09-05T23:22:42.738Z,14.80
2018-09-05T23:25:11.891Z,13.47
2018-09-05T23:27:41.060Z,17.23
2018-09-05T23:30:10.161Z,13.50
2018-09-05T23:32:39.242Z,15.27
2018-09-05T23:35:08.283Z,15.27
2018-09-05T23:37:37.415Z,14.43
2018-09-05T23:40:06.582Z,17.57
2018-09-05T23:42:36.605Z,12.67
2018-09-05T23:45:06.058Z,17.63
2018-09-05T23:47:35.154Z,14.47
2018-09-05T23:50:04.222Z,13.07
2018-09-05T23:52:33.354Z,13.67
2018-09-05T23:55:02.406Z,15.40
2018-09-05T23:57:31.494Z,12.23
